K5SM

Sunlight Airport

Sunlight Mountain, Colorado, USA
METAR K5SM 170554Z AUTO 26005KT 10SM BKN110 M07/M21 A2993 RMK AO2
Observed Flight Rules
Dec-17 @ 05:54 UTC (20 minutes ago) Visual Flight Rules
Wind Visibility Clouds
260° at 5 knots 10 miles
  • Broken at 11,000' AGL
Temperatures Readings
Current -7°C / 19°F
Dewpoint -21°C / -6°F
Humidity 32%
Altimeter 29.93" Hg
Pressure 1014 hPa
Elevation 3232
METAR K5SM 170554Z AUTO 26005KT 10SM BKN110 M07/M21 A2993 RMK AO2
Observed Flight Rules
Dec-17 @ 05:54 UTC
(20 minutes ago)
VFR
Wind Visibility
260° at 5 knots 10 miles
Clouds
  • Broken at 11,000' AGL
Temperature Dewpoint
-7°C / 19°F -21°C / -6°F
Humidity Altimeter Pressure
32% 29.93" Hg 1014 hPa